createdAt,value
2022-10-15T00:00:11.322Z,100395.50
2022-10-15T00:02:38.013Z,100387.09
2022-10-15T00:05:04.803Z,100391.03
2022-10-15T00:07:31.401Z,100388.22
2022-10-15T00:09:58.047Z,100387.72
2022-10-15T00:12:24.703Z,100384.59
2022-10-15T00:14:51.545Z,100383.09
2022-10-15T00:17:18.206Z,100376.66
2022-10-15T00:19:45.014Z,100371.06
2022-10-15T00:22:11.588Z,100371.06
2022-10-15T00:24:38.186Z,100362.63
2022-10-15T00:27:04.782Z,100365.44
2022-10-15T00:29:31.376Z,100360.59
2022-10-15T00:31:57.952Z,100350.19
2022-10-15T00:34:24.603Z,100349.88
2022-10-15T00:36:51.426Z,100351.53
2022-10-15T00:39:18.114Z,100345.56
2022-10-15T00:41:45.155Z,100337.47
2022-10-15T00:44:28.692Z,100329.88
2022-10-15T00:46:55.332Z,100322.28
2022-10-15T00:49:24.415Z,100318.28
2022-10-15T00:51:56.871Z,100307.88
2022-10-15T00:54:24.630Z,100299.78
2022-10-15T00:56:51.529Z,100300.59
2022-10-15T00:59:20.143Z,100301.94
2022-10-15T01:01:46.874Z,100294.34
2022-10-15T01:04:13.543Z,100297.97
2022-10-15T01:06:40.210Z,100306.06
2022-10-15T01:09:06.993Z,100308.03
2022-10-15T01:11:47.629Z,100292.00
2022-10-15T01:14:20.208Z,100285.53
2022-10-15T01:16:51.194Z,100290.00
2022-10-15T01:19:30.078Z,100286.38
2022-10-15T01:22:06.266Z,100274.31
2022-10-15T01:24:35.950Z,100270.69
2022-10-15T01:27:15.631Z,100269.88
2022-10-15T01:29:48.119Z,100277.47
2022-10-15T01:32:36.243Z,100272.16
2022-10-15T01:35:14.207Z,100261.25
2022-10-15T01:37:45.002Z,100262.06
2022-10-15T01:40:17.740Z,100252.81
2022-10-15T01:42:48.884Z,100247.53
2022-10-15T01:45:19.574Z,100241.41
2022-10-15T01:47:50.551Z,100240.59
2022-10-15T01:50:18.225Z,100234.13
2022-10-15T01:52:45.118Z,100235.31
2022-10-15T01:55:14.116Z,100213.97
2022-10-15T01:57:42.627Z,100209.50
2022-10-15T02:00:09.520Z,100202.22
2022-10-15T02:02:36.131Z,100197.44
2022-10-15T02:05:03.226Z,100194.97
2022-10-15T02:07:32.853Z,100199.41
2022-10-15T02:10:11.237Z,100191.34
2022-10-15T02:12:42.031Z,100184.06
2022-10-15T02:15:30.237Z,100186.88
2022-10-15T02:18:24.715Z,100181.56
2022-10-15T02:20:56.368Z,100172.31
2022-10-15T02:23:27.288Z,100171.84
2022-10-15T02:25:55.920Z,100163.72
2022-10-15T02:28:25.937Z,100160.09
2022-10-15T02:30:56.213Z,100153.16
2022-10-15T02:33:23.514Z,100147.56
2022-10-15T02:35:51.552Z,100148.38
2022-10-15T02:38:20.188Z,100148.69
2022-10-15T02:40:47.784Z,100145.06
2022-10-15T02:43:15.119Z,100157.47
2022-10-15T02:45:42.371Z,100149.03
2022-10-15T02:48:17.214Z,100147.41
2022-10-15T02:50:43.888Z,100145.75
2022-10-15T02:53:11.711Z,100143.25
2022-10-15T02:55:38.370Z,100134.81
2022-10-15T02:58:10.589Z,100130.34
2022-10-15T03:00:37.187Z,100123.13
2022-10-15T03:03:03.854Z,100128.72
2022-10-15T03:05:30.663Z,100122.59
2022-10-15T03:07:59.238Z,100117.00
2022-10-15T03:10:25.795Z,100124.59
2022-10-15T03:12:52.377Z,100122.94
2022-10-15T03:15:19.138Z,100122.09
2022-10-15T03:17:45.842Z,100117.66
2022-10-15T03:20:12.445Z,100125.25
2022-10-15T03:22:39.061Z,100125.59
2022-10-15T03:25:05.839Z,100123.59
2022-10-15T03:27:32.561Z,100132.34
2022-10-15T03:29:59.196Z,100134.31
2022-10-15T03:32:25.857Z,100127.06
2022-10-15T03:34:52.575Z,100121.44
2022-10-15T03:37:19.162Z,100118.94
2022-10-15T03:39:45.797Z,100124.56
2022-10-15T03:42:12.466Z,100119.28
2022-10-15T03:44:39.079Z,100114.84
2022-10-15T03:47:05.687Z,100109.53
2022-10-15T03:49:32.305Z,100103.94
2022-10-15T03:51:59.016Z,100104.25
2022-10-15T03:54:25.658Z,100103.41
2022-10-15T03:56:52.249Z,100091.34
2022-10-15T03:59:18.873Z,100096.19
2022-10-15T04:01:45.474Z,100089.72
2022-10-15T04:04:13.126Z,100083.28
2022-10-15T04:06:39.766Z,100075.19
2022-10-15T04:09:06.585Z,100086.41
2022-10-15T04:11:33.192Z,100078.31
2022-10-15T04:13:59.757Z,100069.88
2022-10-15T04:16:26.427Z,100061.81
2022-10-15T04:18:53.043Z,100055.38
2022-10-15T04:21:19.818Z,100053.72
2022-10-15T04:23:46.383Z,100052.88
2022-10-15T04:26:13.017Z,100056.03
2022-10-15T04:28:39.833Z,100059.66
2022-10-15T04:31:06.522Z,100063.97
2022-10-15T04:33:33.131Z,100060.31
2022-10-15T04:36:00.709Z,100058.34
2022-10-15T04:38:27.480Z,100057.53
2022-10-15T04:41:05.443Z,100043.00
2022-10-15T04:43:32.395Z,100039.38
2022-10-15T04:45:59.795Z,100043.00
2022-10-15T04:48:28.139Z,100038.53
2022-10-15T04:50:55.114Z,100037.72
2022-10-15T04:53:22.116Z,100018.38
2022-10-15T04:55:48.739Z,100022.00
2022-10-15T04:58:15.395Z,100030.75
2022-10-15T05:00:42.120Z,100027.16
2022-10-15T05:03:08.732Z,100025.16
2022-10-15T05:05:35.322Z,100029.13
2022-10-15T05:08:02.810Z,100036.72
2022-10-15T05:10:29.422Z,100028.63
2022-10-15T05:12:57.015Z,100027.81
2022-10-15T05:15:25.413Z,100022.19
2022-10-15T05:17:52.016Z,100029.78
2022-10-15T05:20:18.678Z,100030.13
2022-10-15T05:22:45.258Z,100022.03
2022-10-15T05:25:11.882Z,100022.88
2022-10-15T05:27:38.500Z,100021.22
2022-10-15T05:30:05.437Z,100026.81
2022-10-15T05:32:32.231Z,100023.19
2022-10-15T05:34:58.826Z,100022.34
2022-10-15T05:37:25.614Z,100009.50
2022-10-15T05:39:52.414Z,100016.25
2022-10-15T05:42:18.996Z,100019.41
2022-10-15T05:44:45.594Z,100026.66
2022-10-15T05:47:12.670Z,100021.38
2022-10-15T05:49:39.414Z,100025.38
2022-10-15T05:52:06.047Z,100026.50
2022-10-15T05:54:32.632Z,100025.69
2022-10-15T05:56:59.202Z,100034.09
2022-10-15T05:59:25.862Z,100029.66
2022-10-15T06:01:53.041Z,100033.59
2022-10-15T06:04:19.861Z,100029.97
2022-10-15T06:06:46.447Z,100019.91
2022-10-15T06:09:13.023Z,100022.72
2022-10-15T06:11:39.696Z,100029.50
2022-10-15T06:14:06.296Z,100022.22
2022-10-15T06:16:33.568Z,100027.81
2022-10-15T06:19:00.291Z,100025.03
2022-10-15T06:21:26.955Z,100028.66
2022-10-15T06:23:53.582Z,100026.69
2022-10-15T06:26:20.168Z,100032.28
2022-10-15T06:28:47.061Z,100024.19
2022-10-15T06:31:13.909Z,100020.06
2022-10-15T06:33:40.565Z,100024.19
2022-10-15T06:36:08.292Z,100023.88
2022-10-15T06:38:34.939Z,100026.81
2022-10-15T06:41:04.075Z,100025.00
2022-10-15T06:43:32.529Z,100026.81
2022-10-15T06:46:00.749Z,100026.94
2022-10-15T06:48:27.391Z,100029.59
2022-10-15T06:50:53.989Z,100025.78
2022-10-15T06:53:22.601Z,100018.00
2022-10-15T06:55:49.208Z,100013.72
2022-10-15T06:58:15.810Z,100026.75
2022-10-15T07:00:42.383Z,100016.53
2022-10-15T07:03:08.960Z,100011.88
2022-10-15T07:05:35.869Z,100017.81
2022-10-15T07:08:02.624Z,100030.00
2022-10-15T07:13:47.236Z,100022.38
2022-10-15T07:16:13.908Z,100024.19
2022-10-15T07:18:40.677Z,100024.34
2022-10-15T07:23:55.580Z,100020.81
2022-10-15T07:26:22.204Z,100031.72
2022-10-15T07:28:48.889Z,100036.66
2022-10-15T07:31:15.593Z,100037.16
2022-10-15T07:33:45.049Z,100032.84
2022-10-15T07:36:13.001Z,100037.78
2022-10-15T07:38:42.509Z,100044.72
2022-10-15T07:41:10.329Z,100049.66
2022-10-15T07:43:37.337Z,100059.75
2022-10-15T07:46:04.285Z,100057.41
2022-10-15T07:48:31.446Z,100057.06
2022-10-15T07:50:58.831Z,100053.09
2022-10-15T07:53:25.500Z,100060.84
2022-10-15T07:55:52.125Z,100064.50
2022-10-15T07:58:23.243Z,100068.97
2022-10-15T08:00:49.824Z,100065.47
2022-10-15T08:03:16.588Z,100072.75
2022-10-15T08:05:43.174Z,100069.09
2022-10-15T08:08:15.517Z,100075.56
2022-10-15T08:10:42.141Z,100079.19
2022-10-15T08:13:08.858Z,100085.97
2022-10-15T08:15:35.456Z,100085.16
2022-10-15T08:18:02.041Z,100082.69
2022-10-15T08:20:28.753Z,100084.81
2022-10-15T08:22:55.688Z,100087.97
2022-10-15T08:25:22.284Z,100084.69
2022-10-15T08:27:48.845Z,100090.31
2022-10-15T08:30:15.497Z,100087.50
2022-10-15T08:32:42.166Z,100079.06
2022-10-15T08:35:08.998Z,100077.41
2022-10-15T08:37:35.608Z,100081.38
2022-10-15T08:40:02.764Z,100085.84
2022-10-15T08:42:32.445Z,100087.81
2022-10-15T08:45:01.106Z,100083.34
2022-10-15T08:47:30.782Z,100087.00
2022-10-15T08:49:59.433Z,100082.19
2022-10-15T08:52:30.065Z,100079.38
2022-10-15T08:54:56.866Z,100082.53
2022-10-15T08:57:41.994Z,100081.38
2022-10-15T09:00:14.400Z,100079.38
2022-10-15T09:02:50.637Z,100080.22
2022-10-15T09:05:20.223Z,100081.03
2022-10-15T09:07:54.402Z,100088.97
2022-10-15T09:10:31.059Z,100087.00
2022-10-15T09:12:57.670Z,100086.84
2022-10-15T09:15:27.712Z,100095.47
2022-10-15T09:17:54.927Z,100099.31
2022-10-15T09:20:25.362Z,100099.16
2022-10-15T09:22:52.322Z,100098.66
2022-10-15T09:25:20.840Z,100108.59
2022-10-15T09:27:48.849Z,100104.47
2022-10-15T09:30:26.209Z,100113.25
2022-10-15T09:32:59.980Z,100108.47
2022-10-15T09:35:32.515Z,100098.69
2022-10-15T09:38:05.654Z,100097.41
2022-10-15T09:40:58.119Z,100098.38
2022-10-15T09:43:35.709Z,100106.16
2022-10-15T09:46:03.877Z,100098.41
2022-10-15T09:49:01.102Z,100101.53
2022-10-15T09:51:31.796Z,100104.19
2022-10-15T09:54:22.143Z,100097.56
2022-10-15T09:56:54.203Z,100106.50
2022-10-15T09:59:26.224Z,100111.66
2022-10-15T10:02:03.826Z,100102.72
2022-10-15T10:04:33.675Z,100110.81
2022-10-15T10:07:10.983Z,100110.00
2022-10-15T10:09:58.026Z,100128.50
2022-10-15T10:12:30.064Z,100114.47
2022-10-15T10:15:03.495Z,100111.28
2022-10-15T10:17:34.433Z,100110.47
2022-10-15T10:20:13.470Z,100105.34
2022-10-15T10:22:50.465Z,100108.66
2022-10-15T10:25:27.531Z,100104.66
2022-10-15T10:27:55.632Z,100114.75
2022-10-15T10:30:23.175Z,100114.75
2022-10-15T10:32:56.732Z,100113.09
2022-10-15T10:35:26.989Z,100120.25
2022-10-15T10:37:58.507Z,100113.66
2022-10-15T10:40:38.492Z,100122.09
2022-10-15T10:43:21.192Z,100113.78
2022-10-15T10:46:09.756Z,100135.13
2022-10-15T10:48:42.501Z,100130.31
2022-10-15T10:51:30.786Z,100110.28
2022-10-15T10:54:09.040Z,100107.16
2022-10-15T10:56:40.769Z,100115.59
2022-10-15T10:59:19.831Z,100151.44
2022-10-15T11:01:50.926Z,100122.50
2022-10-15T11:04:29.371Z,100138.22
2022-10-15T11:07:08.263Z,100116.56
2022-10-15T11:09:44.512Z,100110.25
2022-10-15T11:12:28.408Z,100122.50
2022-10-15T11:14:59.121Z,100120.16
2022-10-15T11:17:46.490Z,100121.16
2022-10-15T11:20:45.570Z,100108.41
2022-10-15T11:23:26.470Z,100112.53
2022-10-15T11:25:59.110Z,100109.41
2022-10-15T11:28:50.266Z,100116.00
2022-10-15T11:31:30.135Z,100113.66
2022-10-15T11:34:11.792Z,100108.53
2022-10-15T11:36:38.840Z,100125.91
2022-10-15T11:39:29.608Z,100113.47
2022-10-15T11:42:15.325Z,100120.75
2022-10-15T12:19:41.065Z,100091.50
2022-10-15T12:22:11.991Z,100086.34
2022-10-15T12:24:45.467Z,100087.69
2022-10-15T12:27:35.859Z,100082.19
2022-10-15T12:30:08.638Z,100077.53
2022-10-15T12:32:49.855Z,100084.53
2022-10-15T12:35:17.790Z,100069.28
2022-10-15T12:37:52.337Z,100079.38
2022-10-15T12:40:34.479Z,100086.66
2022-10-15T12:43:29.615Z,100084.66
2022-10-15T12:46:03.815Z,100083.84
2022-10-15T12:48:31.072Z,100073.41
2022-10-15T12:51:25.910Z,100065.81
2022-10-15T12:54:01.381Z,100071.44
2022-10-15T12:56:43.915Z,100069.09
2022-10-15T12:59:36.384Z,100071.06
2022-10-15T13:02:25.120Z,100067.09
2022-10-15T13:04:54.984Z,100062.63
2022-10-15T13:07:22.222Z,100067.09
2022-10-15T13:10:23.999Z,100065.94
2022-10-15T13:12:56.727Z,100054.34
2022-10-15T13:15:49.104Z,100060.00
2022-10-15T13:18:19.191Z,100059.16
2022-10-15T13:20:47.599Z,100050.72
2022-10-15T13:23:43.885Z,100050.72
2022-10-15T13:26:15.037Z,100056.03
2022-10-15T13:28:44.734Z,100054.41
2022-10-15T13:31:31.081Z,100057.25
2022-10-15T13:34:08.832Z,100052.47
2022-10-15T13:36:40.050Z,100050.00
2022-10-15T13:39:08.794Z,100052.66
2022-10-15T13:41:37.317Z,100040.94
2022-10-15T13:44:04.561Z,100049.19
2022-10-15T13:46:32.918Z,100041.22
2022-10-15T13:49:01.260Z,100046.53
2022-10-15T13:51:31.983Z,100046.53
2022-10-15T13:53:59.583Z,100052.16
2022-10-15T13:56:30.172Z,100055.78
2022-10-15T13:58:58.458Z,100047.66
2022-10-15T14:01:25.987Z,100040.06
2022-10-15T14:03:53.576Z,100038.41
2022-10-15T14:06:22.964Z,100036.44
2022-10-15T14:08:53.877Z,100031.97
2022-10-15T14:11:20.602Z,100021.53
2022-10-15T14:13:50.516Z,100026.00
2022-10-15T14:16:22.611Z,100028.81
2022-10-15T14:18:50.750Z,100029.97
2022-10-15T14:21:19.285Z,100035.94
2022-10-15T14:23:46.660Z,100035.78
2022-10-15T14:26:14.344Z,100040.59
2022-10-15T14:28:41.752Z,100046.22
2022-10-15T14:31:08.734Z,100041.41
2022-10-15T14:33:38.137Z,100048.56
2022-10-15T14:36:06.241Z,100037.31
2022-10-15T14:38:33.840Z,100038.78
2022-10-15T14:41:23.729Z,100054.03
2022-10-15T14:44:00.934Z,100035.84
2022-10-15T14:46:31.833Z,100035.00
2022-10-15T14:48:58.455Z,100050.22
2022-10-15T14:51:25.835Z,100050.91
2022-10-15T14:53:53.161Z,100045.28
2022-10-15T14:56:21.601Z,100046.09
2022-10-15T14:58:52.420Z,100046.44
2022-10-15T15:01:20.116Z,100057.69
2022-10-15T15:03:49.031Z,100074.06
2022-10-15T15:06:15.886Z,100081.69
2022-10-15T15:08:42.576Z,100069.94
2022-10-15T15:11:12.454Z,100067.47
2022-10-15T15:13:42.079Z,100076.25
2022-10-15T15:16:15.337Z,100073.44
2022-10-15T15:18:44.076Z,100092.59
2022-10-15T15:21:15.508Z,100073.28
2022-10-15T15:23:42.895Z,100088.50
2022-10-15T15:26:09.585Z,100094.78
2022-10-15T15:28:36.213Z,100098.75
2022-10-15T15:31:05.686Z,100100.75
2022-10-15T15:33:32.854Z,100119.09
2022-10-15T15:36:05.278Z,100107.03
2022-10-15T15:38:32.006Z,100111.31
2022-10-15T15:41:11.046Z,100114.13
2022-10-15T15:43:38.796Z,100101.59
2022-10-15T15:46:05.581Z,100114.81
2022-10-15T15:48:32.189Z,100104.72
2022-10-15T15:51:01.916Z,100102.25
2022-10-15T15:53:36.081Z,100105.41
2022-10-15T15:56:02.665Z,100102.91
2022-10-15T15:58:29.382Z,100107.56
2022-10-15T16:00:55.977Z,100121.13
2022-10-15T16:03:32.076Z,100095.81
2022-10-15T16:05:58.984Z,100098.47
2022-10-15T16:08:25.612Z,100100.44
2022-10-15T16:10:52.187Z,100091.38
2022-10-15T16:13:27.156Z,100099.78
2022-10-15T16:15:53.720Z,100105.41
2022-10-15T16:18:20.403Z,100112.50
2022-10-15T16:20:48.721Z,100110.84
2022-10-15T16:23:15.821Z,100104.06
2022-10-15T16:25:42.748Z,100105.41
2022-10-15T16:28:09.623Z,100098.13
2022-10-15T16:30:36.307Z,100095.84
2022-10-15T16:33:02.895Z,100087.09
2022-10-15T16:35:29.520Z,100087.91
2022-10-15T16:37:56.416Z,100090.41
2022-10-15T16:40:35.134Z,100085.59
2022-10-15T16:43:01.755Z,100079.63
2022-10-15T16:45:28.394Z,100096.16
2022-10-15T16:47:55.031Z,100095.03
2022-10-15T16:50:21.717Z,100093.84
2022-10-15T16:52:48.314Z,100101.94
2022-10-15T16:55:16.875Z,100103.25
2022-10-15T16:57:44.579Z,100092.84
2022-10-15T17:00:11.531Z,100091.69
2022-10-15T17:02:38.303Z,100091.34
2022-10-15T17:05:05.090Z,100111.03
2022-10-15T17:07:31.652Z,100122.25
2022-10-15T17:09:58.306Z,100108.22
2022-10-15T17:12:25.173Z,100115.50
2022-10-15T17:14:52.237Z,100124.72
2022-10-15T17:17:19.036Z,100127.22
2022-10-15T17:19:45.692Z,100133.66
2022-10-15T17:22:12.320Z,100132.81
2022-10-15T17:24:38.865Z,100141.25
2022-10-15T17:27:05.642Z,100144.91
2022-10-15T17:29:33.514Z,100137.28
2022-10-15T17:32:00.685Z,100146.56
2022-10-15T17:34:28.179Z,100148.22
2022-10-15T17:36:56.306Z,100141.75
2022-10-15T17:39:23.216Z,100152.66
2022-10-15T17:41:51.094Z,100155.47
2022-10-15T17:44:18.254Z,100162.75
2022-10-15T17:46:44.831Z,100167.53
2022-10-15T17:49:11.549Z,100171.16
2022-10-15T17:51:38.236Z,100165.22
2022-10-15T17:54:04.879Z,100163.56
2022-10-15T17:56:32.661Z,100169.69
2022-10-15T17:58:59.667Z,100164.88
2022-10-15T18:01:39.352Z,100169.69
2022-10-15T18:04:13.088Z,100172.81
2022-10-15T18:06:42.635Z,100167.19
2022-10-15T18:09:09.301Z,100169.19
2022-10-15T18:11:36.116Z,100161.91
2022-10-15T18:14:03.114Z,100166.69
2022-10-15T18:16:29.710Z,100169.50
2022-10-15T18:18:56.356Z,100172.00
2022-10-15T18:21:23.894Z,100172.31
2022-10-15T18:23:50.495Z,100174.66
2022-10-15T18:26:20.939Z,100179.44
2022-10-15T18:28:48.445Z,100179.75
2022-10-15T18:31:15.755Z,100187.03
2022-10-15T18:33:43.395Z,100187.38
2022-10-15T18:36:14.653Z,100182.94
2022-10-15T18:38:43.561Z,100184.06
2022-10-15T18:41:14.453Z,100176.81
2022-10-15T18:43:41.020Z,100187.53
2022-10-15T18:46:07.682Z,100180.09
2022-10-15T18:48:34.295Z,100174.47
2022-10-15T18:51:19.846Z,100186.06
2022-10-15T18:53:58.822Z,100177.97
2022-10-15T18:56:28.263Z,100180.28
2022-10-15T18:58:55.206Z,100200.44
2022-10-15T19:01:25.105Z,100194.34
2022-10-15T19:03:52.833Z,100192.69
2022-10-15T19:06:22.385Z,100198.31
2022-10-15T19:08:49.488Z,100190.19
2022-10-15T19:11:16.750Z,100190.47
2022-10-15T19:13:43.389Z,100194.47
2022-10-15T19:16:13.352Z,100196.44
2022-10-15T19:18:39.957Z,100204.88
2022-10-15T19:21:06.753Z,100206.03
2022-10-15T19:23:44.046Z,100200.41
2022-10-15T19:26:11.569Z,100194.78
2022-10-15T19:28:38.424Z,100191.97
2022-10-15T19:31:07.353Z,100183.88
2022-10-15T19:33:42.533Z,100186.69
2022-10-15T19:36:18.662Z,100191.81
2022-10-15T19:38:45.251Z,100195.78
2022-10-15T19:41:11.805Z,100192.97
2022-10-15T19:43:38.387Z,100185.69
2022-10-15T19:46:05.056Z,100189.66
2022-10-15T19:48:31.733Z,100186.06
2022-10-15T19:51:01.038Z,100186.38
2022-10-15T19:53:33.270Z,100187.53
2022-10-15T19:56:01.389Z,100186.69
2022-10-15T19:58:28.583Z,100181.06
2022-10-15T20:00:55.660Z,100192.66
2022-10-15T20:03:27.736Z,100190.16
2022-10-15T20:05:54.744Z,100194.97
2022-10-15T20:08:21.781Z,100190.50
2022-10-15T20:10:51.534Z,100206.50
2022-10-15T20:13:18.882Z,100204.06
2022-10-15T20:15:46.409Z,100198.75
2022-10-15T20:18:15.226Z,100194.28
2022-10-15T20:20:44.337Z,100203.06
2022-10-15T20:23:11.984Z,100199.41
2022-10-15T20:25:38.645Z,100201.41
2022-10-15T20:28:05.656Z,100203.69
2022-10-15T20:30:32.489Z,100208.47
2022-10-15T20:32:59.088Z,100212.13
2022-10-15T20:35:25.700Z,100208.47
2022-10-15T20:37:52.331Z,100212.78
2022-10-15T20:40:19.219Z,100213.63
2022-10-15T20:42:45.927Z,100218.88
2022-10-15T20:45:16.392Z,100218.25
2022-10-15T20:47:49.701Z,100227.66
2022-10-15T20:50:19.591Z,100220.56
2022-10-15T20:52:46.605Z,100223.56
2022-10-15T20:55:13.167Z,100223.19
2022-10-15T20:57:40.088Z,100230.16
2022-10-15T21:00:07.831Z,100227.84
2022-10-15T21:02:34.475Z,100219.09
2022-10-15T21:05:01.339Z,100222.38
2022-10-15T21:07:27.952Z,100237.75
2022-10-15T21:09:54.694Z,100243.84
2022-10-15T21:12:21.365Z,100244.41
2022-10-15T21:14:47.977Z,100239.59
2022-10-15T21:17:14.617Z,100233.66
2022-10-15T21:19:41.194Z,100234.16
2022-10-15T21:22:07.883Z,100242.75
2022-10-15T21:24:38.488Z,100250.84
2022-10-15T21:27:05.273Z,100255.31
2022-10-15T21:29:31.838Z,100250.53
2022-10-15T21:31:58.408Z,100250.53
2022-10-15T21:34:27.956Z,100259.44
2022-10-15T21:36:57.678Z,100254.66
2022-10-15T21:39:24.292Z,100266.72
2022-10-15T21:41:50.873Z,100272.34
2022-10-15T21:44:17.482Z,100271.50
2022-10-15T21:46:44.174Z,100279.63
2022-10-15T21:49:11.209Z,100263.91
2022-10-15T21:51:37.911Z,100274.00
2022-10-15T21:54:07.574Z,100280.44
2022-10-15T21:56:35.683Z,100276.44
2022-10-15T21:59:02.422Z,100274.47
2022-10-15T22:01:32.923Z,100276.44
2022-10-15T22:04:04.243Z,100283.72
2022-10-15T22:06:32.202Z,100280.09
2022-10-15T22:08:58.969Z,100293.31
2022-10-15T22:14:14.341Z,100287.69
2022-10-15T22:16:41.253Z,100282.44
2022-10-15T22:19:11.040Z,100285.22
2022-10-15T22:21:38.840Z,100292.84
2022-10-15T22:24:07.121Z,100287.22
2022-10-15T22:26:35.674Z,100270.66
2022-10-15T22:29:03.226Z,100279.63
2022-10-15T22:31:30.116Z,100286.91
2022-10-15T22:33:58.620Z,100280.91
2022-10-15T22:36:26.386Z,100286.91
2022-10-15T22:41:41.942Z,100285.22
2022-10-15T22:44:09.602Z,100284.72
2022-10-15T22:46:38.123Z,100286.38
2022-10-15T22:49:05.406Z,100294.81
2022-10-15T22:51:32.768Z,100288.69
2022-10-15T22:53:59.538Z,100298.59
2022-10-15T22:56:26.804Z,100297.47
2022-10-15T22:58:54.864Z,100305.88
2022-10-15T23:01:26.253Z,100308.84
2022-10-15T23:03:54.343Z,100300.44
2022-10-15T23:06:21.690Z,100306.88
2022-10-15T23:08:48.343Z,100305.72
2022-10-15T23:11:17.111Z,100310.16
2022-10-15T23:13:44.938Z,100314.63
2022-10-15T23:16:18.537Z,100310.53
2022-10-15T23:18:45.883Z,100313.34
2022-10-15T23:21:16.978Z,100320.63
2022-10-15T23:23:44.191Z,100316.63
2022-10-15T23:26:11.934Z,100311.50
2022-10-15T23:28:38.561Z,100312.66
2022-10-15T23:31:05.285Z,100315.47
2022-10-15T23:33:33.588Z,100312.66
2022-10-15T23:36:02.143Z,100319.13
2022-10-15T23:38:28.755Z,100311.50
2022-10-15T23:41:08.092Z,100312.66
2022-10-15T23:43:37.475Z,100311.00
2022-10-15T23:46:04.232Z,100325.06
2022-10-15T23:48:30.892Z,100320.63
2022-10-15T23:51:00.974Z,100310.16
2022-10-15T23:53:32.605Z,100310.16
2022-10-15T23:56:01.203Z,100313.81
2022-10-15T23:58:27.851Z,100317.81
